Time;durP1;ratioP1;P1;durP2;ratioP2;P2;SDS_P1;SDS_P2;PMS_P1;PMS_P2;Temp;Humidity;BMP_temperature;BMP_pressure;BME280_temperature;BME280_humidity;BME280_pressure;Samples;Min_cycle;Max_cycle;Signal;HPM_P1;HPM_P2
2020/12/18 00:01:28;;;;;;;6.88;3.28;;;7.00;99.90;;;;;;5014579;28;20049;-68
2020/12/18 00:03:55;;;;;;;8.07;5.07;;;7.00;99.90;;;;;;5013581;28;20041;-68
2020/12/18 00:06:24;;;;;;;7.95;4.57;;;6.90;99.90;;;;;;5023899;28;20041;-68
2020/12/18 00:08:52;;;;;;;8.35;4.53;;;7.00;99.90;;;;;;5027084;28;20136;-68
2020/12/18 00:11:23;;;;;;;6.25;3.90;;;6.90;99.90;;;;;;5041353;28;20037;-68
2020/12/18 00:13:51;;;;;;;9.13;4.88;;;6.90;99.90;;;;;;5023716;28;20471;-68
2020/12/18 00:16:19;;;;;;;7.75;3.90;;;6.90;99.90;;;;;;5029148;28;20041;-68
2020/12/18 00:18:46;;;;;;;8.95;4.15;;;6.90;99.90;;;;;;5023452;28;20046;-68
2020/12/18 00:21:22;;;;;;;9.30;4.10;;;6.90;99.90;;;;;;5022271;28;20495;-68
2020/12/18 00:23:49;;;;;;;7.93;4.43;;;6.90;99.90;;;;;;5031602;28;20062;-68
2020/12/18 00:26:16;;;;;;;5.63;3.58;;;6.90;99.90;;;;;;5030411;28;20054;-69
2020/12/18 00:28:44;;;;;;;6.45;3.90;;;6.90;99.90;;;;;;5024227;28;20050;-68
2020/12/18 00:31:11;;;;;;;9.65;4.50;;;6.80;99.90;;;;;;5027423;28;20049;-68
2020/12/18 00:33:37;;;;;;;8.35;3.97;;;6.80;99.90;;;;;;5028640;28;20062;-68
2020/12/18 00:36:04;;;;;;;6.18;4.00;;;6.80;99.90;;;;;;5028006;28;20045;-68
2020/12/18 00:38:32;;;;;;;8.48;4.43;;;6.80;99.90;;;;;;5024245;28;20099;-68
2020/12/18 00:40:58;;;;;;;6.32;3.70;;;6.80;99.90;;;;;;5030741;28;20045;-68
2020/12/18 00:43:25;;;;;;;6.85;4.53;;;6.80;99.90;;;;;;5015627;28;20068;-68
2020/12/18 00:45:51;;;;;;;9.18;4.50;;;6.80;99.90;;;;;;5026524;28;20061;-68
2020/12/18 00:48:18;;;;;;;7.55;4.22;;;6.80;99.90;;;;;;5019807;28;20123;-68
2020/12/18 00:50:44;;;;;;;10.90;4.78;;;6.80;99.90;;;;;;5028322;28;20449;-68
2020/12/18 00:53:11;;;;;;;8.02;4.28;;;6.80;99.90;;;;;;5025911;28;20073;-68
2020/12/18 00:55:37;;;;;;;7.95;4.28;;;6.80;99.90;;;;;;5029190;28;20135;-68
2020/12/18 00:58:04;;;;;;;5.97;3.50;;;6.80;99.90;;;;;;5044022;28;20437;-68
2020/12/18 01:00:30;;;;;;;9.13;4.85;;;6.80;99.90;;;;;;5028986;28;20056;-68
2020/12/18 01:02:57;;;;;;;8.07;4.40;;;6.80;99.90;;;;;;5023323;28;20115;-68
2020/12/18 01:05:23;;;;;;;10.75;4.95;;;6.80;99.90;;;;;;5028120;28;20049;-68
2020/12/18 01:07:49;;;;;;;9.73;4.75;;;6.80;99.90;;;;;;5022379;28;20103;-68
2020/12/18 01:10:16;;;;;;;8.95;4.40;;;6.70;99.90;;;;;;5026508;28;20049;-68
2020/12/18 01:12:42;;;;;;;9.15;4.85;;;6.70;99.90;;;;;;5011107;28;20085;-68
2020/12/18 01:15:09;;;;;;;6.60;3.95;;;6.70;99.90;;;;;;5012556;28;20042;-68
2020/12/18 01:17:35;;;;;;;8.68;4.30;;;6.80;99.90;;;;;;5011267;28;20053;-68
2020/12/18 01:20:02;;;;;;;8.60;4.75;;;6.70;99.90;;;;;;5010433;28;20481;-68
2020/12/18 01:22:29;;;;;;;10.02;4.72;;;6.70;99.90;;;;;;5010522;28;20127;-68
2020/12/18 01:24:56;;;;;;;8.10;4.18;;;6.80;99.90;;;;;;5014429;28;20053;-68
2020/12/18 01:27:22;;;;;;;7.80;4.78;;;6.70;99.90;;;;;;5011828;28;20060;-68
2020/12/18 01:29:48;;;;;;;9.18;4.03;;;6.70;99.90;;;;;;5012232;28;20041;-68
2020/12/18 01:32:15;;;;;;;7.72;4.05;;;6.70;99.90;;;;;;5010419;28;20397;-68
2020/12/18 01:34:44;;;;;;;5.85;3.78;;;6.70;99.90;;;;;;5011776;28;20109;-68
2020/12/18 01:37:11;;;;;;;9.00;4.38;;;6.70;99.90;;;;;;5005535;28;20096;-68
2020/12/18 01:39:38;;;;;;;6.75;3.58;;;6.70;99.90;;;;;;5015947;28;20053;-68
2020/12/18 01:42:05;;;;;;;7.90;4.38;;;6.70;99.90;;;;;;5007167;28;20061;-68
2020/12/18 01:44:31;;;;;;;8.50;4.57;;;6.70;99.90;;;;;;5010476;28;20041;-68
2020/12/18 01:46:59;;;;;;;7.20;4.07;;;6.60;99.90;;;;;;5012148;28;20045;-68
2020/12/18 01:49:25;;;;;;;9.00;4.30;;;6.60;99.90;;;;;;5014966;28;20045;-68
2020/12/18 01:51:53;;;;;;;8.90;4.57;;;6.60;99.90;;;;;;5009243;28;20131;-68
2020/12/18 01:54:23;;;;;;;7.57;4.50;;;6.60;99.90;;;;;;5031020;28;20042;-68
2020/12/18 01:56:50;;;;;;;11.45;4.95;;;6.60;99.90;;;;;;5009857;28;20119;-68
2020/12/18 01:59:19;;;;;;;8.07;4.25;;;6.60;99.90;;;;;;5030805;28;20100;-68
2020/12/18 02:01:46;;;;;;;11.27;4.18;;;6.60;99.90;;;;;;5008714;28;20061;-68
2020/12/18 02:04:12;;;;;;;6.68;4.10;;;6.60;99.90;;;;;;5028420;28;20451;-68
2020/12/18 02:06:42;;;;;;;10.02;4.93;;;6.60;99.90;;;;;;5010373;28;20420;-68
2020/12/18 02:09:09;;;;;;;9.45;4.85;;;6.50;99.90;;;;;;5012716;28;20104;-68
2020/12/18 02:11:35;;;;;;;8.75;4.40;;;6.60;99.90;;;;;;5010297;28;20050;-68
2020/12/18 02:14:01;;;;;;;10.20;5.00;;;6.50;99.90;;;;;;5015287;28;20045;-68
2020/12/18 02:16:28;;;;;;;7.85;4.20;;;6.50;99.90;;;;;;5026249;28;20443;-68
2020/12/18 02:18:56;;;;;;;8.73;4.30;;;6.50;99.90;;;;;;5026274;28;20050;-68
2020/12/18 02:21:23;;;;;;;7.47;4.05;;;6.50;99.90;;;;;;5017851;28;20081;-68
2020/12/18 02:23:49;;;;;;;10.73;5.05;;;6.50;99.90;;;;;;5028563;28;20115;-68
2020/12/18 02:26:16;;;;;;;7.22;3.92;;;6.50;99.90;;;;;;5020914;28;20503;-68
2020/12/18 02:28:46;;;;;;;9.60;4.75;;;6.50;99.90;;;;;;5036644;28;20140;-68
2020/12/18 02:31:17;;;;;;;8.85;4.30;;;6.50;99.90;;;;;;5026831;28;20061;-68
2020/12/18 02:33:46;;;;;;;8.13;4.22;;;6.50;99.90;;;;;;5017293;28;20042;-68
2020/12/18 02:36:13;;;;;;;6.68;4.03;;;6.50;99.90;;;;;;5023195;28;20401;-68
2020/12/18 02:38:39;;;;;;;8.45;4.30;;;6.50;99.90;;;;;;5043560;28;20053;-68
2020/12/18 02:41:06;;;;;;;9.05;4.32;;;6.50;99.90;;;;;;5030914;28;20480;-68
2020/12/18 02:43:32;;;;;;;10.57;4.63;;;6.50;99.90;;;;;;5021490;28;20053;-68
2020/12/18 02:45:59;;;;;;;8.68;4.07;;;6.50;99.90;;;;;;5023273;28;20049;-68
2020/12/18 02:48:27;;;;;;;7.22;4.25;;;6.50;99.90;;;;;;5021793;28;20056;-68
2020/12/18 02:50:53;;;;;;;6.63;3.95;;;6.50;99.90;;;;;;5030259;28;20045;-68
2020/12/18 02:53:23;;;;;;;10.05;5.10;;;6.50;99.90;;;;;;5020676;28;20111;-68
2020/12/18 02:55:50;;;;;;;9.27;4.78;;;6.50;99.90;;;;;;5023701;28;20425;-68
2020/12/18 02:58:16;;;;;;;9.73;4.75;;;6.50;99.90;;;;;;5026990;28;20045;-68
2020/12/18 03:00:42;;;;;;;10.15;4.75;;;6.50;99.90;;;;;;5021274;28;20497;-68
2020/12/18 03:03:09;;;;;;;9.25;4.25;;;6.40;99.90;;;;;;5022264;28;20472;-68
2020/12/18 03:05:35;;;;;;;8.98;4.43;;;6.40;99.90;;;;;;5021423;28;20054;-68
2020/12/18 03:08:03;;;;;;;8.38;4.60;;;6.40;99.90;;;;;;5018533;28;20404;-68
2020/12/18 03:10:30;;;;;;;10.32;4.45;;;6.40;99.90;;;;;;5022554;28;20053;-68
2020/12/18 03:12:56;;;;;;;8.27;4.45;;;6.40;99.90;;;;;;5023428;28;20099;-68
2020/12/18 03:15:23;;;;;;;8.40;3.95;;;6.40;99.90;;;;;;5028200;28;20444;-68
2020/12/18 03:17:49;;;;;;;6.95;4.25;;;6.40;99.90;;;;;;5022496;28;20045;-68
2020/12/18 03:20:16;;;;;;;8.90;4.20;;;6.40;99.90;;;;;;5029425;28;20045;-68
2020/12/18 03:22:46;;;;;;;6.30;3.75;;;6.40;99.90;;;;;;5020423;28;20103;-68
2020/12/18 03:25:13;;;;;;;9.13;4.18;;;6.40;99.90;;;;;;5029389;28;20050;-68
2020/12/18 03:27:44;;;;;;;9.63;4.47;;;6.40;99.90;;;;;;5026818;28;20056;-68
2020/12/18 03:30:11;;;;;;;8.02;4.03;;;6.30;99.90;;;;;;5014339;28;20053;-68
2020/12/18 03:32:38;;;;;;;6.85;3.80;;;6.40;99.90;;;;;;5024978;28;20419;-68
2020/12/18 03:35:05;;;;;;;7.50;3.70;;;6.30;99.90;;;;;;5027017;28;20061;-68
2020/12/18 03:37:33;;;;;;;5.80;3.15;;;6.30;99.90;;;;;;5023928;28;20045;-68
2020/12/18 03:40:00;;;;;;;6.82;3.95;;;6.30;99.90;;;;;;5022931;28;20046;-68
2020/12/18 03:42:27;;;;;;;8.38;4.50;;;6.30;99.90;;;;;;5027775;28;20459;-68
2020/12/18 03:44:54;;;;;;;6.13;3.45;;;6.30;99.90;;;;;;5017584;28;20100;-68
2020/12/18 03:47:20;;;;;;;13.23;4.60;;;6.30;99.90;;;;;;5026089;28;20405;-68
2020/12/18 03:49:47;;;;;;;8.27;3.75;;;6.30;99.90;;;;;;5029484;28;20644;-68
2020/12/18 03:52:13;;;;;;;6.82;3.15;;;6.30;99.90;;;;;;5024235;28;20050;-68
2020/12/18 03:54:40;;;;;;;10.50;4.57;;;6.30;99.90;;;;;;5026437;28;20076;-68
2020/12/18 03:57:08;;;;;;;9.50;3.88;;;6.30;99.90;;;;;;5021867;28;20042;-68
2020/12/18 03:59:34;;;;;;;8.43;4.35;;;6.30;99.90;;;;;;5027109;28;20054;-68
2020/12/18 04:02:04;;;;;;;9.50;4.25;;;6.40;99.90;;;;;;5028856;28;20409;-68
2020/12/18 04:04:31;;;;;;;9.30;3.45;;;6.40;99.90;;;;;;5030505;28;20054;-68
2020/12/18 04:06:58;;;;;;;6.03;3.67;;;6.40;99.90;;;;;;5024105;28;20107;-68
2020/12/18 04:09:24;;;;;;;8.05;3.63;;;6.40;99.90;;;;;;5030148;28;20049;-68
2020/12/18 04:11:50;;;;;;;7.78;3.60;;;6.40;99.90;;;;;;5024563;28;20119;-68
2020/12/18 04:14:17;;;;;;;8.45;4.13;;;6.40;99.90;;;;;;5031928;28;20061;-68
2020/12/18 04:16:44;;;;;;;8.20;3.88;;;6.40;99.90;;;;;;5019714;28;20133;-68
2020/12/18 04:19:10;;;;;;;10.77;5.22;;;6.40;99.90;;;;;;5032946;28;20049;-68
2020/12/18 04:21:37;;;;;;;8.63;3.90;;;6.40;99.90;;;;;;5018516;28;20542;-68
2020/12/18 04:24:03;;;;;;;7.80;3.83;;;6.40;99.90;;;;;;5029119;28;20050;-68
2020/12/18 04:26:30;;;;;;;7.45;3.83;;;6.40;99.90;;;;;;5024820;28;20042;-68
2020/12/18 04:28:56;;;;;;;8.13;4.25;;;6.40;99.90;;;;;;5031313;28;20057;-68
2020/12/18 04:31:23;;;;;;;6.78;3.20;;;6.40;99.90;;;;;;5023636;28;20049;-68
2020/12/18 04:33:49;;;;;;;6.63;3.53;;;6.40;99.90;;;;;;5026430;28;20088;-68
2020/12/18 04:36:16;;;;;;;6.18;2.90;;;6.40;99.90;;;;;;5027247;28;20063;-68
2020/12/18 04:38:42;;;;;;;7.93;3.10;;;6.50;99.90;;;;;;5029306;28;20054;-68
2020/12/18 04:41:09;;;;;;;7.05;3.22;;;6.50;99.90;;;;;;5026356;28;20448;-68
2020/12/18 04:43:37;;;;;;;7.47;3.35;;;6.50;99.90;;;;;;5025249;28;20054;-68
2020/12/18 04:46:08;;;;;;;8.73;3.22;;;6.50;99.90;;;;;;5039481;28;20049;-68
2020/12/18 04:48:36;;;;;;;8.07;4.03;;;6.50;99.90;;;;;;5027623;28;20544;-68
2020/12/18 04:51:04;;;;;;;5.95;3.67;;;6.50;99.90;;;;;;5028615;28;20045;-68
2020/12/18 04:53:39;;;;;;;8.98;3.42;;;6.50;99.90;;;;;;5024715;28;20447;-68
2020/12/18 04:56:10;;;;;;;5.10;2.80;;;6.50;99.90;;;;;;5030459;28;20093;-68
2020/12/18 04:58:38;;;;;;;7.78;3.67;;;6.50;99.90;;;;;;5019310;28;20055;-68
2020/12/18 05:01:06;;;;;;;9.38;3.50;;;6.60;99.90;;;;;;5030332;28;20050;-68
2020/12/18 05:03:35;;;;;;;6.10;3.30;;;6.60;99.90;;;;;;5023395;28;20117;-68
2020/12/18 05:06:06;;;;;;;8.57;4.03;;;6.60;99.90;;;;;;5030059;28;20433;-68
2020/12/18 05:08:34;;;;;;;6.00;3.20;;;6.60;99.90;;;;;;5030000;28;20488;-68
2020/12/18 05:11:15;;;;;;;6.50;3.45;;;6.60;99.90;;;;;;5024585;28;20049;-68
2020/12/18 05:13:44;;;;;;;7.15;3.10;;;6.60;99.90;;;;;;5026464;28;20045;-68
2020/12/18 05:16:11;;;;;;;7.55;2.50;;;6.60;99.90;;;;;;5031929;28;20041;-68
2020/12/18 05:18:38;;;;;;;6.97;3.33;;;6.60;99.90;;;;;;5029502;28;20528;-68
2020/12/18 05:21:05;;;;;;;9.10;3.78;;;6.70;99.90;;;;;;5031995;28;20049;-68
2020/12/18 05:23:39;;;;;;;8.05;3.55;;;6.70;99.90;;;;;;5019679;28;20057;-68
2020/12/18 05:26:09;;;;;;;6.35;3.20;;;6.70;99.90;;;;;;5027095;28;20077;-68
2020/12/18 05:28:50;;;;;;;10.05;4.05;;;6.70;99.90;;;;;;5021916;28;20057;-68
2020/12/18 05:31:18;;;;;;;6.95;3.33;;;6.70;99.90;;;;;;5029760;28;20133;-68
2020/12/18 05:33:49;;;;;;;6.47;2.83;;;6.70;99.90;;;;;;5029311;28;20056;-68
2020/12/18 05:36:15;;;;;;;5.07;2.90;;;6.70;99.90;;;;;;5022737;28;20038;-68
2020/12/18 05:38:42;;;;;;;6.70;3.42;;;6.70;99.90;;;;;;5039812;28;20049;-68
2020/12/18 05:41:09;;;;;;;6.97;2.80;;;6.70;99.90;;;;;;5024862;28;20096;-68
2020/12/18 05:43:38;;;;;;;5.43;2.80;;;6.70;99.90;;;;;;5020731;28;20480;-68
2020/12/18 05:46:26;;;;;;;7.43;3.00;;;6.70;99.90;;;;;;5024577;28;20050;-68
2020/12/18 05:49:02;;;;;;;4.65;2.25;;;6.70;99.90;;;;;;5029049;28;20053;-68
2020/12/18 05:51:40;;;;;;;7.57;3.50;;;6.70;99.90;;;;;;5023659;28;20107;-68
2020/12/18 05:54:19;;;;;;;7.13;3.35;;;6.70;99.90;;;;;;5021996;28;20060;-68
2020/12/18 05:56:48;;;;;;;5.43;2.83;;;6.70;99.90;;;;;;5019793;28;20413;-68
2020/12/18 05:59:19;;;;;;;8.90;3.20;;;6.70;99.90;;;;;;5030347;28;20088;-68
2020/12/18 06:01:48;;;;;;;6.53;3.17;;;6.70;99.90;;;;;;5026587;28;20053;-68
2020/12/18 06:04:16;;;;;;;11.80;3.90;;;6.70;99.90;;;;;;5028452;28;20176;-68
2020/12/18 06:06:51;;;;;;;7.93;3.03;;;6.70;99.90;;;;;;5025917;28;20062;-68
2020/12/18 06:09:19;;;;;;;6.60;3.30;;;6.70;99.90;;;;;;5028390;28;20065;-68
2020/12/18 06:11:47;;;;;;;5.13;3.35;;;6.70;99.90;;;;;;5025136;28;20057;-68
2020/12/18 06:14:16;;;;;;;7.47;3.00;;;6.70;99.90;;;;;;5024890;28;20118;-68
2020/12/18 06:16:53;;;;;;;7.07;2.50;;;6.70;99.90;;;;;;5022979;28;20136;-68
2020/12/18 06:19:21;;;;;;;8.65;3.47;;;6.70;99.90;;;;;;5031182;28;20072;-68
2020/12/18 06:21:54;;;;;;;7.20;2.70;;;6.70;99.90;;;;;;5022567;28;20504;-68
2020/12/18 06:24:39;;;;;;;8.02;2.67;;;6.70;99.90;;;;;;5025703;28;20061;-68
2020/12/18 06:27:08;;;;;;;6.22;3.33;;;6.70;99.90;;;;;;5025077;28;20105;-68
2020/12/18 06:29:35;;;;;;;6.82;3.10;;;6.70;99.90;;;;;;5026469;28;20132;-68
2020/12/18 06:32:22;;;;;;;5.63;2.90;;;6.70;99.90;;;;;;5019834;28;20099;-68
2020/12/18 06:34:49;;;;;;;10.50;3.10;;;6.70;99.90;;;;;;5023759;28;20451;-68
2020/12/18 06:37:27;;;;;;;6.13;2.97;;;6.70;99.90;;;;;;5021928;28;20053;-68
2020/12/18 06:40:33;;;;;;;7.50;3.20;;;6.70;99.90;;;;;;5031697;28;20416;-68
2020/12/18 06:43:00;;;;;;;6.68;2.83;;;6.70;99.90;;;;;;5008540;28;20124;-68
2020/12/18 06:45:27;;;;;;;4.63;2.53;;;6.70;99.90;;;;;;4997235;28;20107;-68
2020/12/18 06:47:54;;;;;;;4.78;2.60;;;6.70;99.90;;;;;;5005255;28;20064;-68
2020/12/18 06:51:02;;;;;;;5.53;2.67;;;6.70;99.90;;;;;;5026956;28;20381;-68
2020/12/18 06:53:28;;;;;;;6.00;2.70;;;6.80;99.90;;;;;;5027094;28;20045;-68
2020/12/18 06:55:58;;;;;;;6.55;2.90;;;6.70;99.90;;;;;;5021693;28;20097;-68
2020/12/18 06:58:28;;;;;;;8.50;3.10;;;6.70;99.90;;;;;;5019018;28;20115;-68
2020/12/18 07:01:03;;;;;;;8.40;3.20;;;6.80;99.90;;;;;;5019139;28;20061;-68
2020/12/18 07:03:32;;;;;;;9.02;2.83;;;6.80;99.90;;;;;;5022467;28;20049;-68
2020/12/18 07:06:04;;;;;;;6.15;2.80;;;6.80;99.90;;;;;;5028782;28;20049;-68
2020/12/18 07:08:55;;;;;;;5.95;2.60;;;6.90;99.90;;;;;;5014283;28;20053;-68
2020/12/18 07:11:21;;;;;;;9.10;2.72;;;6.90;99.90;;;;;;5026609;28;20046;-68
2020/12/18 07:13:55;;;;;;;6.28;2.72;;;7.00;99.90;;;;;;5030882;28;20520;-68
2020/12/18 07:16:26;;;;;;;3.83;2.28;;;7.00;99.90;;;;;;5019746;28;20053;-68
2020/12/18 07:19:04;;;;;;;6.20;2.55;;;7.10;99.90;;;;;;5023916;28;20042;-68
2020/12/18 07:21:30;;;;;;;7.07;2.87;;;7.10;99.90;;;;;;5018327;28;20054;-69
2020/12/18 07:23:59;;;;;;;8.48;2.42;;;7.10;99.90;;;;;;5026362;28;20296;-69
2020/12/18 07:26:27;;;;;;;6.70;2.65;;;7.20;99.90;;;;;;5023848;28;20054;-68
2020/12/18 07:28:54;;;;;;;4.72;2.55;;;7.20;99.90;;;;;;5032410;28;20173;-68
2020/12/18 07:31:22;;;;;;;7.80;3.03;;;7.20;99.90;;;;;;5018846;28;20057;-68
2020/12/18 07:33:58;;;;;;;5.32;2.78;;;7.30;99.90;;;;;;5017105;28;20103;-69
2020/12/18 07:36:27;;;;;;;6.63;3.30;;;7.30;99.90;;;;;;5024605;28;20124;-69
2020/12/18 07:38:57;;;;;;;8.02;3.70;;;7.30;99.90;;;;;;5021912;28;20049;-69
2020/12/18 07:41:26;;;;;;;6.78;3.25;;;7.40;99.90;;;;;;5018844;28;20045;-67
2020/12/18 07:43:52;;;;;;;6.20;3.58;;;7.40;99.90;;;;;;5038614;28;20045;-68
2020/12/18 07:46:22;;;;;;;4.65;2.97;;;7.40;99.90;;;;;;5020837;28;20061;-68
2020/12/18 07:48:48;;;;;;;6.90;3.28;;;7.50;99.90;;;;;;5016732;28;20445;-68
2020/12/18 07:51:21;;;;;;;6.43;3.13;;;7.50;99.90;;;;;;5027772;28;20456;-68
2020/12/18 07:53:53;;;;;;;7.57;3.13;;;7.50;99.90;;;;;;5023549;28;20053;-69
2020/12/18 07:56:21;;;;;;;6.93;3.63;;;7.50;99.90;;;;;;5017306;28;20076;-69
2020/12/18 07:58:47;;;;;;;7.07;3.45;;;7.50;99.90;;;;;;5027685;28;20100;-68
2020/12/18 08:01:22;;;;;;;8.43;3.85;;;7.60;99.90;;;;;;5018429;28;20132;-68
2020/12/18 08:03:57;;;;;;;6.93;3.40;;;7.60;99.90;;;;;;5033658;28;20095;-68
2020/12/18 08:06:26;;;;;;;7.90;4.50;;;7.60;99.90;;;;;;5020667;28;20045;-69
2020/12/18 08:08:56;;;;;;;6.63;4.07;;;7.70;99.90;;;;;;5020045;28;20091;-68
2020/12/18 08:11:25;;;;;;;8.57;3.67;;;7.70;99.90;;;;;;5020176;28;20053;-68
2020/12/18 08:13:53;;;;;;;7.78;4.43;;;7.70;99.90;;;;;;5023145;28;20404;-69
2020/12/18 08:16:24;;;;;;;7.25;4.18;;;7.70;99.90;;;;;;5017327;28;20100;-68
2020/12/18 08:19:01;;;;;;;9.13;4.90;;;7.80;99.90;;;;;;5011365;28;20050;-70
2020/12/18 08:21:30;;;;;;;7.88;5.00;;;7.80;99.90;;;;;;5025609;28;20334;-69
2020/12/18 08:24:06;;;;;;;10.18;6.18;;;7.90;99.90;;;;;;5018174;28;20060;-68
2020/12/18 08:26:38;;;;;;;8.65;5.20;;;7.90;99.90;;;;;;5029710;28;20057;-68
2020/12/18 08:29:06;;;;;;;13.85;5.72;;;7.90;99.90;;;;;;5022605;28;20064;-68
2020/12/18 08:31:41;;;;;;;9.50;5.50;;;8.00;99.90;;;;;;5027908;28;20503;-68
2020/12/18 08:34:14;;;;;;;12.70;6.53;;;8.00;99.90;;;;;;5018865;28;20104;-68
2020/12/18 08:36:46;;;;;;;11.63;6.10;;;8.10;99.90;;;;;;5020248;28;20129;-68
2020/12/18 08:39:14;;;;;;;13.23;6.10;;;8.10;99.90;;;;;;5016849;28;20077;-68
2020/12/18 08:41:51;;;;;;;11.55;6.35;;;8.10;99.90;;;;;;5019143;28;20138;-69
2020/12/18 08:44:21;;;;;;;11.52;5.90;;;8.20;99.90;;;;;;5021015;28;20341;-68
2020/12/18 08:46:49;;;;;;;11.05;5.88;;;8.20;99.90;;;;;;5029796;28;20049;-68
2020/12/18 08:49:24;;;;;;;9.77;5.97;;;8.20;99.90;;;;;;5024535;28;20538;-68
2020/12/18 08:51:53;;;;;;;12.25;5.80;;;8.20;99.90;;;;;;5022242;28;20050;-68
2020/12/18 08:54:20;;;;;;;10.00;5.40;;;8.30;99.90;;;;;;5027032;28;20053;-68
2020/12/18 08:56:46;;;;;;;10.85;6.20;;;8.30;99.90;;;;;;5032053;28;20060;-68
2020/12/18 08:59:16;;;;;;;12.57;6.25;;;8.30;99.90;;;;;;5026119;28;20050;-68
2020/12/18 09:01:49;;;;;;;11.73;5.82;;;8.30;99.90;;;;;;5022145;28;20050;-69
2020/12/18 09:04:16;;;;;;;11.98;5.80;;;8.30;99.90;;;;;;5021695;28;20046;-68
2020/12/18 09:06:52;;;;;;;8.95;5.03;;;8.40;99.90;;;;;;5021672;28;20053;-68
2020/12/18 09:09:19;;;;;;;9.30;5.25;;;8.40;99.90;;;;;;5022861;28;20585;-68
2020/12/18 09:11:47;;;;;;;12.60;5.00;;;8.50;99.90;;;;;;5045556;28;20057;-68
2020/12/18 09:14:29;;;;;;;10.17;5.40;;;8.50;99.90;;;;;;5024806;28;20050;-69
2020/12/18 09:16:59;;;;;;;10.88;4.93;;;8.50;99.90;;;;;;5022307;28;20050;-68
2020/12/18 09:19:25;;;;;;;9.77;4.82;;;8.60;99.90;;;;;;5021457;28;20045;-68
2020/12/18 09:22:04;;;;;;;12.25;4.90;;;8.60;99.90;;;;;;5031423;28;20037;-68
2020/12/18 09:24:30;;;;;;;7.43;4.57;;;8.70;99.90;;;;;;5026333;28;20107;-68
2020/12/18 09:27:14;;;;;;;10.02;5.50;;;8.80;99.90;;;;;;5027120;28;20057;-68
2020/12/18 09:29:41;;;;;;;7.00;4.25;;;9.00;99.90;;;;;;5041869;28;20080;-69
2020/12/18 09:32:07;;;;;;;8.68;4.60;;;9.10;99.90;;;;;;5028821;28;20054;-69
2020/12/18 09:34:34;;;;;;;9.27;4.88;;;9.20;99.90;;;;;;5021557;28;20049;-68
2020/12/18 09:37:12;;;;;;;8.48;4.40;;;9.30;99.90;;;;;;5025944;28;20437;-68
2020/12/18 09:39:38;;;;;;;10.93;5.25;;;9.40;99.90;;;;;;5022712;28;20080;-68
2020/12/18 09:42:05;;;;;;;7.80;4.30;;;9.50;99.90;;;;;;5031371;28;20042;-68
2020/12/18 09:44:31;;;;;;;7.20;3.67;;;9.50;99.90;;;;;;5022626;28;20053;-69
2020/12/18 09:46:57;;;;;;;8.80;4.85;;;9.50;99.90;;;;;;5024518;28;20071;-69
2020/12/18 09:49:25;;;;;;;10.75;5.30;;;9.60;99.90;;;;;;5026392;28;20088;-69
2020/12/18 09:51:51;;;;;;;9.10;4.45;;;9.70;99.90;;;;;;5026816;28;20112;-68
2020/12/18 09:54:17;;;;;;;12.25;4.55;;;9.70;99.90;;;;;;5026280;28;20550;-68
2020/12/18 09:56:44;;;;;;;8.10;4.93;;;9.80;99.90;;;;;;5029350;28;20045;-68
2020/12/18 09:59:12;;;;;;;9.07;4.85;;;9.90;99.90;;;;;;5026049;28;20053;-68
2020/12/18 10:01:38;;;;;;;7.75;2.90;;;10.00;99.90;;;;;;5031127;28;20127;-68
2020/12/18 10:04:04;;;;;;;9.95;3.38;;;10.10;99.90;;;;;;5026810;28;20073;-68
2020/12/18 10:06:31;;;;;;;6.00;2.90;;;10.10;99.90;;;;;;5026852;28;20072;-68
2020/12/18 10:08:57;;;;;;;7.38;3.25;;;10.20;99.90;;;;;;5021780;28;20149;-68
2020/12/18 10:11:28;;;;;;;5.88;3.20;;;10.20;99.90;;;;;;5013301;28;20207;-69
2020/12/18 10:13:55;;;;;;;9.30;3.40;;;10.30;99.90;;;;;;5019628;28;20050;-68
2020/12/18 10:16:21;;;;;;;8.73;3.58;;;10.20;99.90;;;;;;5029385;28;20112;-68
2020/12/18 10:18:48;;;;;;;7.13;3.17;;;10.30;99.90;;;;;;5025741;28;20050;-69
2020/12/18 10:21:14;;;;;;;8.15;3.10;;;10.20;99.90;;;;;;5025424;28;20109;-69
2020/12/18 10:23:41;;;;;;;8.27;3.38;;;10.20;99.90;;;;;;5027973;28;20136;-68
2020/12/18 10:26:08;;;;;;;8.05;3.45;;;10.10;99.90;;;;;;5026966;28;20050;-69
2020/12/18 10:28:34;;;;;;;8.25;3.10;;;10.10;99.90;;;;;;5020952;28;20081;-69
2020/12/18 10:31:01;;;;;;;6.03;2.60;;;10.10;99.90;;;;;;5027511;28;20119;-69
2020/12/18 10:33:27;;;;;;;5.35;2.83;;;10.10;99.90;;;;;;5027196;28;20060;-69
2020/12/18 10:35:54;;;;;;;6.05;3.20;;;10.20;99.90;;;;;;5030374;28;20099;-69
2020/12/18 10:38:24;;;;;;;6.65;3.30;;;10.30;99.90;;;;;;5027634;28;20057;-69
2020/12/18 10:40:51;;;;;;;4.97;3.08;;;10.40;99.90;;;;;;5018737;28;20053;-69
2020/12/18 10:43:17;;;;;;;8.77;3.35;;;10.60;99.90;;;;;;5019805;28;20123;-69
2020/12/18 10:45:44;;;;;;;5.70;3.00;;;10.70;99.90;;;;;;5023097;28;20110;-69
2020/12/18 10:48:10;;;;;;;5.28;2.67;;;10.80;99.90;;;;;;5017673;28;20058;-69
2020/12/18 10:50:37;;;;;;;8.02;3.10;;;10.90;99.90;;;;;;5024057;28;20182;-69
2020/12/18 10:53:03;;;;;;;5.70;2.90;;;11.00;99.90;;;;;;5021290;28;20103;-68
2020/12/18 10:55:30;;;;;;;7.53;2.40;;;11.10;99.90;;;;;;5029291;28;20046;-68
2020/12/18 10:57:56;;;;;;;5.53;2.55;;;11.30;99.90;;;;;;5019683;28;20053;-69
2020/12/18 11:00:23;;;;;;;6.10;2.75;;;11.60;99.90;;;;;;5034998;28;20145;-68
2020/12/18 11:02:49;;;;;;;10.18;2.80;;;11.90;99.90;;;;;;5022172;28;20075;-69
2020/12/18 11:05:15;;;;;;;5.47;2.53;;;12.20;99.90;;;;;;5024701;28;20045;-69
2020/12/18 11:07:42;;;;;;;5.40;2.50;;;12.50;99.90;;;;;;5020621;28;20053;-69
2020/12/18 11:10:09;;;;;;;3.40;1.83;;;12.80;99.90;;;;;;5022894;28;20053;-69
2020/12/18 11:12:36;;;;;;;5.43;2.28;;;13.00;99.90;;;;;;5015313;28;20100;-69
2020/12/18 11:15:02;;;;;;;6.30;1.90;;;13.10;99.90;;;;;;5023027;28;20111;-69
2020/12/18 11:17:29;;;;;;;6.65;1.85;;;13.20;99.90;;;;;;5028265;28;20111;-69
2020/12/18 11:19:55;;;;;;;6.03;2.20;;;13.20;99.90;;;;;;5020010;28;20045;-69
2020/12/18 11:22:26;;;;;;;5.65;1.90;;;13.30;99.90;;;;;;5020869;28;20076;-69
2020/12/18 11:24:52;;;;;;;4.25;1.88;;;13.60;99.90;;;;;;5025685;28;20088;-69
2020/12/18 11:27:23;;;;;;;5.32;1.90;;;13.90;99.90;;;;;;5019854;28;20168;-69
2020/12/18 11:29:49;;;;;;;5.68;1.63;;;14.10;99.90;;;;;;5038192;28;20054;-69
2020/12/18 11:32:19;;;;;;;5.15;1.80;;;14.30;99.90;;;;;;5021813;28;20318;-69
2020/12/18 11:34:45;;;;;;;5.65;1.80;;;14.40;99.90;;;;;;5017329;28;20050;-69
2020/12/18 11:37:13;;;;;;;6.65;2.03;;;14.40;99.90;;;;;;5026154;28;20065;-69
2020/12/18 11:39:40;;;;;;;3.88;1.70;;;14.50;99.90;;;;;;5013151;28;20396;-69
2020/12/18 11:42:06;;;;;;;3.90;1.90;;;14.70;99.90;;;;;;5023041;28;20544;-69
2020/12/18 11:44:32;;;;;;;5.18;1.77;;;14.90;99.90;;;;;;5014312;28;20551;-69
2020/12/18 11:46:59;;;;;;;5.10;1.35;;;15.20;99.90;;;;;;5023660;28;20058;-69
2020/12/18 11:49:25;;;;;;;4.60;1.30;;;15.40;99.90;;;;;;5023751;28;20077;-69
2020/12/18 11:51:52;;;;;;;2.80;1.50;;;15.60;99.90;;;;;;5025932;28;20134;-69
2020/12/18 11:54:18;;;;;;;3.38;1.30;;;15.80;99.90;;;;;;5017999;28;20390;-69
2020/12/18 11:56:48;;;;;;;3.08;1.33;;;16.00;99.90;;;;;;5023558;28;20050;-69
2020/12/18 11:59:15;;;;;;;3.40;1.40;;;15.80;99.90;;;;;;5021160;28;20045;-69
2020/12/18 12:01:43;;;;;;;3.38;1.27;;;15.80;99.90;;;;;;5022242;28;20058;-69
2020/12/18 12:04:10;;;;;;;5.88;1.73;;;15.90;99.90;;;;;;5019244;28;20042;-70
2020/12/18 12:06:36;;;;;;;5.20;1.58;;;15.90;99.90;;;;;;5027392;28;20058;-69
2020/12/18 12:09:03;;;;;;;4.05;1.60;;;16.00;99.90;;;;;;5026211;28;20564;-69
2020/12/18 12:11:40;;;;;;;4.13;1.23;;;16.00;99.90;;;;;;5023713;28;20412;-69
2020/12/18 12:14:07;;;;;;;2.13;1.23;;;16.00;99.90;;;;;;5014886;28;20571;-69
2020/12/18 12:16:37;;;;;;;6.05;1.67;;;16.00;99.90;;;;;;5020617;28;20046;-69
2020/12/18 12:19:04;;;;;;;2.95;1.58;;;16.10;99.90;;;;;;5020170;28;20677;-69
2020/12/18 12:21:35;;;;;;;5.78;1.70;;;16.10;99.90;;;;;;5028539;28;20076;-69
2020/12/18 12:24:02;;;;;;;3.45;1.40;;;16.30;99.90;;;;;;5041185;28;20049;-69
2020/12/18 12:26:29;;;;;;;3.45;1.20;;;16.50;99.90;;;;;;5030304;28;20116;-69
2020/12/18 12:28:55;;;;;;;3.88;1.60;;;16.60;99.90;;;;;;5021619;28;20057;-69
2020/12/18 12:31:22;;;;;;;3.10;1.50;;;16.70;99.90;;;;;;5031161;28;20100;-69
2020/12/18 12:33:49;;;;;;;3.72;1.30;;;16.70;99.90;;;;;;5023421;28;20053;-69
2020/12/18 12:36:23;;;;;;;2.92;1.30;;;16.30;99.90;;;;;;5026912;28;20147;-69
2020/12/18 12:38:50;;;;;;;6.43;1.40;;;16.40;99.90;;;;;;5025292;28;20108;-69
2020/12/18 12:41:17;;;;;;;5.15;1.55;;;16.60;99.90;;;;;;5026592;28;20041;-70
2020/12/18 12:43:43;;;;;;;4.05;1.63;;;16.60;99.90;;;;;;5023306;28;20454;-69
2020/12/18 12:46:10;;;;;;;4.40;1.27;;;16.70;99.90;;;;;;5025424;28;20108;-70
2020/12/18 12:48:37;;;;;;;7.28;1.67;;;16.80;99.90;;;;;;5021798;28;20085;-69
2020/12/18 12:51:03;;;;;;;4.43;1.40;;;16.90;99.90;;;;;;5022797;28;20489;-69
2020/12/18 12:53:30;;;;;;;2.67;1.08;;;17.10;99.90;;;;;;5024265;28;20049;-69
2020/12/18 12:55:56;;;;;;;4.63;1.10;;;17.20;99.90;;;;;;5029272;28;20053;-69
2020/12/18 12:58:22;;;;;;;3.67;1.40;;;17.10;99.90;;;;;;5022733;28;20522;-69
2020/12/18 13:00:49;;;;;;;2.92;0.93;;;17.20;99.90;;;;;;5032085;28;20099;-70